sensor_id;sensor_type;location;lat;lon;timestamp;P1;durP1;ratioP1;P2;durP2;ratioP2
11996;SDS011;6058;48.704;9.474;2023-06-04T00:00:53;7.50;;;5.03;;
11996;SDS011;6058;48.704;9.474;2023-06-04T00:03:22;5.37;;;4.87;;
11996;SDS011;6058;48.704;9.474;2023-06-04T00:05:49;5.20;;;4.43;;
11996;SDS011;6058;48.704;9.474;2023-06-04T00:08:18;5.07;;;4.47;;
11996;SDS011;6058;48.704;9.474;2023-06-04T00:10:46;5.30;;;4.57;;
11996;SDS011;6058;48.704;9.474;2023-06-04T00:13:14;6.03;;;4.47;;
11996;SDS011;6058;48.704;9.474;2023-06-04T00:15:41;5.67;;;4.53;;
11996;SDS011;6058;48.704;9.474;2023-06-04T00:18:08;6.03;;;4.40;;
11996;SDS011;6058;48.704;9.474;2023-06-04T00:20:38;7.27;;;4.93;;
11996;SDS011;6058;48.704;9.474;2023-06-04T00:23:05;6.90;;;5.30;;
11996;SDS011;6058;48.704;9.474;2023-06-04T00:25:32;4.70;;;4.13;;
11996;SDS011;6058;48.704;9.474;2023-06-04T00:28:00;5.60;;;4.47;;
11996;SDS011;6058;48.704;9.474;2023-06-04T00:30:29;8.17;;;4.70;;
11996;SDS011;6058;48.704;9.474;2023-06-04T00:32:56;5.97;;;4.03;;
11996;SDS011;6058;48.704;9.474;2023-06-04T00:35:23;7.53;;;4.37;;
11996;SDS011;6058;48.704;9.474;2023-06-04T00:37:50;5.83;;;4.50;;
11996;SDS011;6058;48.704;9.474;2023-06-04T00:40:18;6.03;;;4.47;;
11996;SDS011;6058;48.704;9.474;2023-06-04T00:42:45;8.27;;;4.43;;
11996;SDS011;6058;48.704;9.474;2023-06-04T00:45:14;4.93;;;4.43;;
11996;SDS011;6058;48.704;9.474;2023-06-04T00:47:45;7.10;;;5.23;;
11996;SDS011;6058;48.704;9.474;2023-06-04T00:50:12;6.50;;;4.60;;
11996;SDS011;6058;48.704;9.474;2023-06-04T00:52:40;5.50;;;4.77;;
11996;SDS011;6058;48.704;9.474;2023-06-04T00:55:07;7.87;;;4.87;;
11996;SDS011;6058;48.704;9.474;2023-06-04T00:57:34;4.67;;;3.97;;
11996;SDS011;6058;48.704;9.474;2023-06-04T01:00:02;5.67;;;4.13;;
11996;SDS011;6058;48.704;9.474;2023-06-04T01:02:30;4.73;;;4.17;;
11996;SDS011;6058;48.704;9.474;2023-06-04T01:05:01;6.90;;;4.67;;
11996;SDS011;6058;48.704;9.474;2023-06-04T01:07:29;4.63;;;4.13;;
11996;SDS011;6058;48.704;9.474;2023-06-04T01:09:56;4.60;;;3.60;;
11996;SDS011;6058;48.704;9.474;2023-06-04T01:12:24;4.37;;;3.83;;
11996;SDS011;6058;48.704;9.474;2023-06-04T01:14:51;5.23;;;4.20;;
11996;SDS011;6058;48.704;9.474;2023-06-04T01:17:19;5.13;;;4.13;;
11996;SDS011;6058;48.704;9.474;2023-06-04T01:22:39;6.50;;;4.20;;
11996;SDS011;6058;48.704;9.474;2023-06-04T01:25:09;5.53;;;4.50;;
11996;SDS011;6058;48.704;9.474;2023-06-04T01:27:46;5.73;;;4.53;;
11996;SDS011;6058;48.704;9.474;2023-06-04T01:30:14;4.80;;;4.40;;
11996;SDS011;6058;48.704;9.474;2023-06-04T01:32:41;6.13;;;4.03;;
11996;SDS011;6058;48.704;9.474;2023-06-04T01:35:08;7.20;;;4.10;;
11996;SDS011;6058;48.704;9.474;2023-06-04T01:37:37;7.23;;;4.63;;
11996;SDS011;6058;48.704;9.474;2023-06-04T01:40:06;5.90;;;4.60;;
11996;SDS011;6058;48.704;9.474;2023-06-04T01:42:34;4.80;;;3.90;;
11996;SDS011;6058;48.704;9.474;2023-06-04T01:45:01;4.50;;;3.73;;
11996;SDS011;6058;48.704;9.474;2023-06-04T01:47:28;4.63;;;3.90;;
11996;SDS011;6058;48.704;9.474;2023-06-04T01:49:55;4.40;;;3.70;;
11996;SDS011;6058;48.704;9.474;2023-06-04T01:52:22;6.07;;;3.97;;
11996;SDS011;6058;48.704;9.474;2023-06-04T01:54:50;4.30;;;3.83;;
11996;SDS011;6058;48.704;9.474;2023-06-04T01:57:19;5.33;;;4.17;;
11996;SDS011;6058;48.704;9.474;2023-06-04T01:59:46;4.27;;;3.87;;
11996;SDS011;6058;48.704;9.474;2023-06-04T02:02:13;4.57;;;3.83;;
11996;SDS011;6058;48.704;9.474;2023-06-04T02:04:40;3.80;;;3.40;;
11996;SDS011;6058;48.704;9.474;2023-06-04T02:07:10;4.70;;;4.03;;
11996;SDS011;6058;48.704;9.474;2023-06-04T02:09:42;5.03;;;3.87;;
11996;SDS011;6058;48.704;9.474;2023-06-04T02:12:10;6.97;;;4.17;;
11996;SDS011;6058;48.704;9.474;2023-06-04T02:14:38;5.77;;;4.30;;
11996;SDS011;6058;48.704;9.474;2023-06-04T02:17:07;5.33;;;3.73;;
11996;SDS011;6058;48.704;9.474;2023-06-04T02:19:38;4.63;;;4.23;;
11996;SDS011;6058;48.704;9.474;2023-06-04T02:22:09;4.97;;;4.03;;
11996;SDS011;6058;48.704;9.474;2023-06-04T02:24:37;6.40;;;4.00;;
11996;SDS011;6058;48.704;9.474;2023-06-04T02:27:10;5.03;;;3.73;;
11996;SDS011;6058;48.704;9.474;2023-06-04T02:29:41;4.23;;;3.33;;
11996;SDS011;6058;48.704;9.474;2023-06-04T02:32:08;5.20;;;3.60;;
11996;SDS011;6058;48.704;9.474;2023-06-04T02:34:35;3.97;;;3.37;;
11996;SDS011;6058;48.704;9.474;2023-06-04T02:37:03;4.37;;;3.70;;
11996;SDS011;6058;48.704;9.474;2023-06-04T02:39:30;5.10;;;3.40;;
11996;SDS011;6058;48.704;9.474;2023-06-04T02:41:57;3.57;;;3.27;;
11996;SDS011;6058;48.704;9.474;2023-06-04T02:44:24;7.33;;;3.83;;
11996;SDS011;6058;48.704;9.474;2023-06-04T02:46:54;4.17;;;3.20;;
11996;SDS011;6058;48.704;9.474;2023-06-04T02:49:22;3.60;;;3.23;;
11996;SDS011;6058;48.704;9.474;2023-06-04T02:51:50;4.17;;;3.73;;
11996;SDS011;6058;48.704;9.474;2023-06-04T02:54:17;4.93;;;3.90;;
11996;SDS011;6058;48.704;9.474;2023-06-04T02:56:44;4.90;;;3.30;;
11996;SDS011;6058;48.704;9.474;2023-06-04T02:59:14;3.10;;;2.80;;
11996;SDS011;6058;48.704;9.474;2023-06-04T03:01:41;5.57;;;3.40;;
11996;SDS011;6058;48.704;9.474;2023-06-04T03:04:10;4.80;;;3.57;;
11996;SDS011;6058;48.704;9.474;2023-06-04T03:06:40;5.93;;;3.30;;
11996;SDS011;6058;48.704;9.474;2023-06-04T03:09:09;3.47;;;3.17;;
11996;SDS011;6058;48.704;9.474;2023-06-04T03:11:37;4.03;;;3.60;;
11996;SDS011;6058;48.704;9.474;2023-06-04T03:14:06;4.90;;;3.67;;
11996;SDS011;6058;48.704;9.474;2023-06-04T03:16:33;3.20;;;2.90;;
11996;SDS011;6058;48.704;9.474;2023-06-04T03:19:08;3.30;;;3.00;;
11996;SDS011;6058;48.704;9.474;2023-06-04T03:21:38;6.60;;;3.37;;
11996;SDS011;6058;48.704;9.474;2023-06-04T03:24:05;3.97;;;3.53;;
11996;SDS011;6058;48.704;9.474;2023-06-04T03:26:32;2.90;;;2.70;;
11996;SDS011;6058;48.704;9.474;2023-06-04T03:28:59;4.30;;;3.20;;
11996;SDS011;6058;48.704;9.474;2023-06-04T03:31:27;4.40;;;3.40;;
11996;SDS011;6058;48.704;9.474;2023-06-04T03:33:54;5.33;;;2.77;;
11996;SDS011;6058;48.704;9.474;2023-06-04T03:36:21;3.23;;;2.93;;
11996;SDS011;6058;48.704;9.474;2023-06-04T03:39:00;4.00;;;3.13;;
11996;SDS011;6058;48.704;9.474;2023-06-04T03:41:29;3.20;;;2.90;;
11996;SDS011;6058;48.704;9.474;2023-06-04T03:43:56;2.97;;;2.67;;
11996;SDS011;6058;48.704;9.474;2023-06-04T03:46:24;5.87;;;2.70;;
11996;SDS011;6058;48.704;9.474;2023-06-04T03:48:53;4.23;;;3.17;;
11996;SDS011;6058;48.704;9.474;2023-06-04T03:51:23;2.90;;;2.60;;
11996;SDS011;6058;48.704;9.474;2023-06-04T03:53:51;4.57;;;3.03;;
11996;SDS011;6058;48.704;9.474;2023-06-04T03:56:19;3.20;;;2.90;;
11996;SDS011;6058;48.704;9.474;2023-06-04T03:58:47;3.47;;;2.90;;
11996;SDS011;6058;48.704;9.474;2023-06-04T04:01:15;6.00;;;2.47;;
11996;SDS011;6058;48.704;9.474;2023-06-04T04:03:43;3.63;;;2.47;;
11996;SDS011;6058;48.704;9.474;2023-06-04T04:06:14;3.97;;;2.97;;
11996;SDS011;6058;48.704;9.474;2023-06-04T04:08:41;3.37;;;2.40;;
11996;SDS011;6058;48.704;9.474;2023-06-04T04:11:09;3.30;;;2.53;;
11996;SDS011;6058;48.704;9.474;2023-06-04T04:13:37;3.30;;;3.00;;
11996;SDS011;6058;48.704;9.474;2023-06-04T04:16:04;3.83;;;2.73;;
11996;SDS011;6058;48.704;9.474;2023-06-04T04:18:32;3.73;;;2.80;;
11996;SDS011;6058;48.704;9.474;2023-06-04T04:21:00;4.00;;;2.97;;
11996;SDS011;6058;48.704;9.474;2023-06-04T04:23:27;4.37;;;2.50;;
11996;SDS011;6058;48.704;9.474;2023-06-04T04:25:55;2.30;;;2.10;;
11996;SDS011;6058;48.704;9.474;2023-06-04T04:28:23;3.10;;;2.80;;
11996;SDS011;6058;48.704;9.474;2023-06-04T04:30:55;2.33;;;2.13;;
11996;SDS011;6058;48.704;9.474;2023-06-04T04:33:22;2.30;;;2.10;;
11996;SDS011;6058;48.704;9.474;2023-06-04T04:35:50;4.17;;;2.63;;
11996;SDS011;6058;48.704;9.474;2023-06-04T04:38:18;3.43;;;2.40;;
11996;SDS011;6058;48.704;9.474;2023-06-04T04:40:48;3.20;;;2.07;;
11996;SDS011;6058;48.704;9.474;2023-06-04T04:43:17;2.50;;;2.30;;
11996;SDS011;6058;48.704;9.474;2023-06-04T04:45:44;3.00;;;2.50;;
11996;SDS011;6058;48.704;9.474;2023-06-04T04:48:13;4.27;;;2.20;;
11996;SDS011;6058;48.704;9.474;2023-06-04T04:50:42;3.00;;;2.23;;
11996;SDS011;6058;48.704;9.474;2023-06-04T04:53:10;2.20;;;2.00;;
11996;SDS011;6058;48.704;9.474;2023-06-04T04:55:37;3.93;;;2.00;;
11996;SDS011;6058;48.704;9.474;2023-06-04T04:58:08;4.43;;;2.33;;
11996;SDS011;6058;48.704;9.474;2023-06-04T05:00:35;4.60;;;2.23;;
11996;SDS011;6058;48.704;9.474;2023-06-04T05:03:02;3.37;;;2.37;;
11996;SDS011;6058;48.704;9.474;2023-06-04T05:05:31;2.97;;;1.97;;
11996;SDS011;6058;48.704;9.474;2023-06-04T05:07:58;2.87;;;2.40;;
11996;SDS011;6058;48.704;9.474;2023-06-04T05:10:25;3.43;;;2.30;;
11996;SDS011;6058;48.704;9.474;2023-06-04T05:12:52;1.90;;;1.80;;
11996;SDS011;6058;48.704;9.474;2023-06-04T05:15:20;4.23;;;2.20;;
11996;SDS011;6058;48.704;9.474;2023-06-04T05:17:47;4.60;;;1.80;;
11996;SDS011;6058;48.704;9.474;2023-06-04T05:20:17;2.23;;;2.00;;
11996;SDS011;6058;48.704;9.474;2023-06-04T05:22:47;6.40;;;2.10;;
11996;SDS011;6058;48.704;9.474;2023-06-04T05:25:14;2.50;;;2.10;;
11996;SDS011;6058;48.704;9.474;2023-06-04T05:27:41;2.20;;;2.00;;
11996;SDS011;6058;48.704;9.474;2023-06-04T05:30:09;2.20;;;2.00;;
11996;SDS011;6058;48.704;9.474;2023-06-04T05:32:36;5.30;;;2.27;;
11996;SDS011;6058;48.704;9.474;2023-06-04T05:35:05;2.77;;;2.23;;
11996;SDS011;6058;48.704;9.474;2023-06-04T05:37:33;3.23;;;1.90;;
11996;SDS011;6058;48.704;9.474;2023-06-04T05:40:05;2.90;;;1.77;;
11996;SDS011;6058;48.704;9.474;2023-06-04T05:42:32;2.80;;;1.73;;
11996;SDS011;6058;48.704;9.474;2023-06-04T05:44:59;1.90;;;1.80;;
11996;SDS011;6058;48.704;9.474;2023-06-04T05:47:27;2.20;;;1.70;;
11996;SDS011;6058;48.704;9.474;2023-06-04T05:49:55;1.93;;;1.70;;
11996;SDS011;6058;48.704;9.474;2023-06-04T05:52:22;2.80;;;1.33;;
11996;SDS011;6058;48.704;9.474;2023-06-04T05:54:49;1.53;;;1.43;;
11996;SDS011;6058;48.704;9.474;2023-06-04T05:57:18;1.97;;;1.70;;
11996;SDS011;6058;48.704;9.474;2023-06-04T05:59:45;4.57;;;1.80;;
11996;SDS011;6058;48.704;9.474;2023-06-04T06:02:13;1.63;;;1.53;;
11996;SDS011;6058;48.704;9.474;2023-06-04T06:04:40;2.27;;;2.00;;
11996;SDS011;6058;48.704;9.474;2023-06-04T06:07:07;2.77;;;1.60;;
11996;SDS011;6058;48.704;9.474;2023-06-04T06:09:34;1.77;;;1.50;;
11996;SDS011;6058;48.704;9.474;2023-06-04T06:12:01;2.43;;;1.93;;
11996;SDS011;6058;48.704;9.474;2023-06-04T06:14:31;1.77;;;1.67;;
11996;SDS011;6058;48.704;9.474;2023-06-04T06:16:59;2.07;;;1.10;;
11996;SDS011;6058;48.704;9.474;2023-06-04T06:19:28;2.40;;;1.53;;
11996;SDS011;6058;48.704;9.474;2023-06-04T06:21:56;2.97;;;1.60;;
11996;SDS011;6058;48.704;9.474;2023-06-04T06:24:23;2.50;;;1.70;;
11996;SDS011;6058;48.704;9.474;2023-06-04T06:26:51;4.37;;;1.60;;
11996;SDS011;6058;48.704;9.474;2023-06-04T06:29:18;3.00;;;1.60;;
11996;SDS011;6058;48.704;9.474;2023-06-04T06:31:46;1.77;;;1.67;;
11996;SDS011;6058;48.704;9.474;2023-06-04T06:34:13;3.60;;;1.53;;
11996;SDS011;6058;48.704;9.474;2023-06-04T06:36:40;3.80;;;2.90;;
11996;SDS011;6058;48.704;9.474;2023-06-04T06:39:09;6.10;;;1.80;;
11996;SDS011;6058;48.704;9.474;2023-06-04T06:41:36;3.27;;;2.03;;
11996;SDS011;6058;48.704;9.474;2023-06-04T06:44:04;2.93;;;1.73;;
11996;SDS011;6058;48.704;9.474;2023-06-04T06:46:32;1.77;;;1.60;;
11996;SDS011;6058;48.704;9.474;2023-06-04T06:49:00;5.07;;;1.80;;
11996;SDS011;6058;48.704;9.474;2023-06-04T06:51:27;4.10;;;1.70;;
11996;SDS011;6058;48.704;9.474;2023-06-04T06:53:54;1.83;;;1.70;;
11996;SDS011;6058;48.704;9.474;2023-06-04T06:56:21;2.07;;;1.63;;
11996;SDS011;6058;48.704;9.474;2023-06-04T06:58:48;1.97;;;1.70;;
11996;SDS011;6058;48.704;9.474;2023-06-04T07:01:16;1.80;;;1.45;;
11996;SDS011;6058;48.704;9.474;2023-06-04T07:03:43;3.25;;;1.98;;
11996;SDS011;6058;48.704;9.474;2023-06-04T07:06:11;1.67;;;1.38;;
11996;SDS011;6058;48.704;9.474;2023-06-04T07:08:39;3.63;;;2.17;;
11996;SDS011;6058;48.704;9.474;2023-06-04T07:11:07;3.45;;;1.60;;
11996;SDS011;6058;48.704;9.474;2023-06-04T07:13:36;3.42;;;2.30;;
11996;SDS011;6058;48.704;9.474;2023-06-04T07:16:04;1.90;;;1.80;;
11996;SDS011;6058;48.704;9.474;2023-06-04T07:18:31;4.03;;;1.88;;
11996;SDS011;6058;48.704;9.474;2023-06-04T07:20:58;3.15;;;1.73;;
11996;SDS011;6058;48.704;9.474;2023-06-04T07:23:27;2.97;;;1.83;;
11996;SDS011;6058;48.704;9.474;2023-06-04T07:25:54;3.03;;;1.83;;
11996;SDS011;6058;48.704;9.474;2023-06-04T07:28:21;1.95;;;1.73;;
11996;SDS011;6058;48.704;9.474;2023-06-04T07:30:48;3.17;;;1.85;;
11996;SDS011;6058;48.704;9.474;2023-06-04T07:33:15;3.67;;;1.98;;
11996;SDS011;6058;48.704;9.474;2023-06-04T07:35:42;2.05;;;1.52;;
11996;SDS011;6058;48.704;9.474;2023-06-04T07:38:10;4.75;;;2.15;;
11996;SDS011;6058;48.704;9.474;2023-06-04T07:40:38;2.10;;;1.83;;
11996;SDS011;6058;48.704;9.474;2023-06-04T07:43:05;3.35;;;1.90;;
11996;SDS011;6058;48.704;9.474;2023-06-04T07:45:32;3.10;;;1.95;;
11996;SDS011;6058;48.704;9.474;2023-06-04T07:47:59;1.98;;;1.80;;
11996;SDS011;6058;48.704;9.474;2023-06-04T07:50:27;2.85;;;2.33;;
11996;SDS011;6058;48.704;9.474;2023-06-04T07:52:54;3.50;;;2.08;;
11996;SDS011;6058;48.704;9.474;2023-06-04T07:55:21;2.90;;;2.00;;
11996;SDS011;6058;48.704;9.474;2023-06-04T07:57:50;2.10;;;1.70;;
11996;SDS011;6058;48.704;9.474;2023-06-04T08:00:17;3.63;;;1.90;;
11996;SDS011;6058;48.704;9.474;2023-06-04T08:02:44;3.65;;;1.67;;
11996;SDS011;6058;48.704;9.474;2023-06-04T08:05:13;2.15;;;1.98;;
11996;SDS011;6058;48.704;9.474;2023-06-04T08:07:40;2.30;;;1.92;;
11996;SDS011;6058;48.704;9.474;2023-06-04T08:10:08;2.88;;;1.92;;
11996;SDS011;6058;48.704;9.474;2023-06-04T08:12:35;1.95;;;1.70;;
11996;SDS011;6058;48.704;9.474;2023-06-04T08:15:05;4.43;;;2.00;;
11996;SDS011;6058;48.704;9.474;2023-06-04T08:17:32;2.15;;;1.95;;
11996;SDS011;6058;48.704;9.474;2023-06-04T08:19:59;4.00;;;1.70;;
11996;SDS011;6058;48.704;9.474;2023-06-04T08:22:26;3.20;;;1.95;;
11996;SDS011;6058;48.704;9.474;2023-06-04T08:24:54;5.25;;;2.05;;
11996;SDS011;6058;48.704;9.474;2023-06-04T08:27:21;4.65;;;1.90;;
11996;SDS011;6058;48.704;9.474;2023-06-04T08:29:48;3.53;;;1.80;;
11996;SDS011;6058;48.704;9.474;2023-06-04T08:32:18;3.30;;;2.00;;
11996;SDS011;6058;48.704;9.474;2023-06-04T08:34:45;4.50;;;2.10;;
11996;SDS011;6058;48.704;9.474;2023-06-04T08:37:12;2.83;;;2.08;;
11996;SDS011;6058;48.704;9.474;2023-06-04T08:39:40;2.85;;;1.80;;
11996;SDS011;6058;48.704;9.474;2023-06-04T08:42:07;3.97;;;2.13;;
11996;SDS011;6058;48.704;9.474;2023-06-04T08:44:36;3.83;;;2.10;;
11996;SDS011;6058;48.704;9.474;2023-06-04T08:47:05;2.90;;;1.98;;
11996;SDS011;6058;48.704;9.474;2023-06-04T08:49:34;5.15;;;1.95;;
11996;SDS011;6058;48.704;9.474;2023-06-04T08:52:02;2.90;;;1.75;;
11996;SDS011;6058;48.704;9.474;2023-06-04T08:54:30;2.30;;;1.98;;
11996;SDS011;6058;48.704;9.474;2023-06-04T08:56:59;2.67;;;2.08;;
11996;SDS011;6058;48.704;9.474;2023-06-04T08:59:27;2.05;;;1.90;;
11996;SDS011;6058;48.704;9.474;2023-06-04T09:01:54;2.25;;;1.92;;
11996;SDS011;6058;48.704;9.474;2023-06-04T09:04:21;1.92;;;1.75;;
11996;SDS011;6058;48.704;9.474;2023-06-04T09:06:49;1.95;;;1.77;;
11996;SDS011;6058;48.704;9.474;2023-06-04T09:09:17;3.45;;;1.95;;
11996;SDS011;6058;48.704;9.474;2023-06-04T09:11:46;4.10;;;2.13;;
11996;SDS011;6058;48.704;9.474;2023-06-04T09:14:16;4.57;;;2.03;;
11996;SDS011;6058;48.704;9.474;2023-06-04T09:16:44;2.28;;;2.05;;
11996;SDS011;6058;48.704;9.474;2023-06-04T09:19:11;3.33;;;2.13;;
11996;SDS011;6058;48.704;9.474;2023-06-04T09:21:52;4.15;;;2.15;;
11996;SDS011;6058;48.704;9.474;2023-06-04T09:24:20;2.92;;;1.85;;
11996;SDS011;6058;48.704;9.474;2023-06-04T09:26:47;3.17;;;2.03;;
11996;SDS011;6058;48.704;9.474;2023-06-04T09:29:14;2.30;;;1.92;;
11996;SDS011;6058;48.704;9.474;2023-06-04T09:31:41;2.17;;;1.98;;
11996;SDS011;6058;48.704;9.474;2023-06-04T09:34:11;2.47;;;2.28;;
11996;SDS011;6058;48.704;9.474;2023-06-04T09:36:39;4.18;;;2.28;;
11996;SDS011;6058;48.704;9.474;2023-06-04T09:39:15;3.45;;;2.17;;
11996;SDS011;6058;48.704;9.474;2023-06-04T09:41:42;2.17;;;1.98;;
11996;SDS011;6058;48.704;9.474;2023-06-04T09:44:09;3.10;;;2.20;;
11996;SDS011;6058;48.704;9.474;2023-06-04T09:46:37;2.78;;;2.50;;
11996;SDS011;6058;48.704;9.474;2023-06-04T09:49:04;3.83;;;2.10;;
11996;SDS011;6058;48.704;9.474;2023-06-04T09:51:32;2.85;;;2.33;;
11996;SDS011;6058;48.704;9.474;2023-06-04T09:53:59;4.63;;;2.53;;
11996;SDS011;6058;48.704;9.474;2023-06-04T09:56:28;4.65;;;2.25;;
11996;SDS011;6058;48.704;9.474;2023-06-04T09:58:57;2.65;;;2.20;;
11996;SDS011;6058;48.704;9.474;2023-06-04T10:01:26;5.07;;;2.00;;
11996;SDS011;6058;48.704;9.474;2023-06-04T10:03:53;2.55;;;2.30;;
11996;SDS011;6058;48.704;9.474;2023-06-04T10:06:24;2.13;;;1.77;;
11996;SDS011;6058;48.704;9.474;2023-06-04T10:08:52;2.33;;;2.13;;
11996;SDS011;6058;48.704;9.474;2023-06-04T10:11:22;3.85;;;1.90;;
11996;SDS011;6058;48.704;9.474;2023-06-04T10:13:53;3.35;;;2.30;;
11996;SDS011;6058;48.704;9.474;2023-06-04T10:16:23;2.58;;;2.35;;
11996;SDS011;6058;48.704;9.474;2023-06-04T10:18:52;3.83;;;2.42;;
11996;SDS011;6058;48.704;9.474;2023-06-04T10:21:20;2.95;;;2.67;;
11996;SDS011;6058;48.704;9.474;2023-06-04T10:23:48;3.65;;;2.80;;
11996;SDS011;6058;48.704;9.474;2023-06-04T10:26:15;4.05;;;2.50;;
11996;SDS011;6058;48.704;9.474;2023-06-04T10:28:43;5.53;;;2.95;;
11996;SDS011;6058;48.704;9.474;2023-06-04T10:31:12;4.03;;;3.17;;
11996;SDS011;6058;48.704;9.474;2023-06-04T10:33:39;3.00;;;2.70;;
11996;SDS011;6058;48.704;9.474;2023-06-04T10:36:16;4.15;;;2.60;;
11996;SDS011;6058;48.704;9.474;2023-06-04T10:38:46;3.17;;;2.83;;
11996;SDS011;6058;48.704;9.474;2023-06-04T10:41:14;5.35;;;2.95;;
11996;SDS011;6058;48.704;9.474;2023-06-04T10:43:42;4.30;;;2.80;;
11996;SDS011;6058;48.704;9.474;2023-06-04T10:46:14;4.65;;;2.83;;
11996;SDS011;6058;48.704;9.474;2023-06-04T10:48:45;3.63;;;3.00;;
11996;SDS011;6058;48.704;9.474;2023-06-04T10:51:12;6.50;;;2.60;;
11996;SDS011;6058;48.704;9.474;2023-06-04T10:53:39;4.00;;;2.70;;
11996;SDS011;6058;48.704;9.474;2023-06-04T10:56:06;3.08;;;2.75;;
11996;SDS011;6058;48.704;9.474;2023-06-04T10:58:34;3.75;;;2.78;;
11996;SDS011;6058;48.704;9.474;2023-06-04T11:01:01;4.15;;;2.92;;
11996;SDS011;6058;48.704;9.474;2023-06-04T11:03:36;3.28;;;2.70;;
11996;SDS011;6058;48.704;9.474;2023-06-04T11:06:13;4.10;;;2.60;;
11996;SDS011;6058;48.704;9.474;2023-06-04T11:08:41;3.47;;;3.08;;
11996;SDS011;6058;48.704;9.474;2023-06-04T11:11:12;3.92;;;3.30;;
11996;SDS011;6058;48.704;9.474;2023-06-04T11:13:39;5.43;;;2.80;;
11996;SDS011;6058;48.704;9.474;2023-06-04T11:16:16;3.25;;;2.88;;
11996;SDS011;6058;48.704;9.474;2023-06-04T11:18:49;3.10;;;2.72;;
11996;SDS011;6058;48.704;9.474;2023-06-04T11:21:21;4.70;;;2.85;;
11996;SDS011;6058;48.704;9.474;2023-06-04T11:23:48;3.28;;;2.97;;
11996;SDS011;6058;48.704;9.474;2023-06-04T11:26:15;3.47;;;2.67;;
11996;SDS011;6058;48.704;9.474;2023-06-04T11:28:43;4.28;;;2.92;;
11996;SDS011;6058;48.704;9.474;2023-06-04T11:31:10;3.20;;;2.78;;
11996;SDS011;6058;48.704;9.474;2023-06-04T11:33:41;4.90;;;2.88;;
11996;SDS011;6058;48.704;9.474;2023-06-04T11:36:10;3.22;;;2.80;;
11996;SDS011;6058;48.704;9.474;2023-06-04T11:38:37;3.38;;;2.90;;
11996;SDS011;6058;48.704;9.474;2023-06-04T11:41:04;3.50;;;3.15;;
11996;SDS011;6058;48.704;9.474;2023-06-04T11:43:32;7.90;;;2.90;;
11996;SDS011;6058;48.704;9.474;2023-06-04T11:46:05;5.03;;;3.10;;
11996;SDS011;6058;48.704;9.474;2023-06-04T11:48:32;4.03;;;3.22;;
11996;SDS011;6058;48.704;9.474;2023-06-04T11:51:04;3.65;;;3.20;;
11996;SDS011;6058;48.704;9.474;2023-06-04T11:53:33;4.47;;;3.22;;
11996;SDS011;6058;48.704;9.474;2023-06-04T11:56:00;4.68;;;3.30;;
11996;SDS011;6058;48.704;9.474;2023-06-04T11:58:27;4.22;;;2.63;;
11996;SDS011;6058;48.704;9.474;2023-06-04T12:00:54;4.25;;;3.28;;
11996;SDS011;6058;48.704;9.474;2023-06-04T12:03:30;3.80;;;2.95;;
11996;SDS011;6058;48.704;9.474;2023-06-04T12:05:57;3.08;;;2.35;;
11996;SDS011;6058;48.704;9.474;2023-06-04T12:08:24;3.97;;;2.80;;
11996;SDS011;6058;48.704;9.474;2023-06-04T12:10:53;4.63;;;2.47;;
11996;SDS011;6058;48.704;9.474;2023-06-04T12:13:20;3.28;;;2.67;;
11996;SDS011;6058;48.704;9.474;2023-06-04T12:15:50;5.18;;;3.28;;
11996;SDS011;6058;48.704;9.474;2023-06-04T12:18:22;3.83;;;2.83;;
11996;SDS011;6058;48.704;9.474;2023-06-04T12:20:49;3.10;;;2.67;;
11996;SDS011;6058;48.704;9.474;2023-06-04T12:23:19;7.63;;;2.90;;
11996;SDS011;6058;48.704;9.474;2023-06-04T12:25:49;4.25;;;2.50;;
11996;SDS011;6058;48.704;9.474;2023-06-04T12:28:18;3.58;;;2.60;;
11996;SDS011;6058;48.704;9.474;2023-06-04T12:30:45;3.38;;;2.65;;
11996;SDS011;6058;48.704;9.474;2023-06-04T12:33:12;4.30;;;3.15;;
11996;SDS011;6058;48.704;9.474;2023-06-04T12:35:39;5.07;;;3.00;;
11996;SDS011;6058;48.704;9.474;2023-06-04T12:38:06;4.78;;;3.17;;
11996;SDS011;6058;48.704;9.474;2023-06-04T12:40:34;2.90;;;2.58;;
11996;SDS011;6058;48.704;9.474;2023-06-04T12:43:01;2.85;;;2.40;;
11996;SDS011;6058;48.704;9.474;2023-06-04T12:45:29;5.43;;;3.08;;
11996;SDS011;6058;48.704;9.474;2023-06-04T12:47:57;4.30;;;2.83;;
11996;SDS011;6058;48.704;9.474;2023-06-04T12:50:24;3.30;;;2.65;;
11996;SDS011;6058;48.704;9.474;2023-06-04T12:52:51;4.30;;;2.80;;
11996;SDS011;6058;48.704;9.474;2023-06-04T12:55:18;4.10;;;2.47;;
11996;SDS011;6058;48.704;9.474;2023-06-04T12:57:45;2.67;;;2.47;;
11996;SDS011;6058;48.704;9.474;2023-06-04T13:00:13;2.80;;;2.50;;
11996;SDS011;6058;48.704;9.474;2023-06-04T13:02:42;2.90;;;2.70;;
11996;SDS011;6058;48.704;9.474;2023-06-04T13:05:09;3.17;;;2.88;;
11996;SDS011;6058;48.704;9.474;2023-06-04T13:07:37;4.20;;;2.33;;
11996;SDS011;6058;48.704;9.474;2023-06-04T13:10:04;3.03;;;2.70;;
11996;SDS011;6058;48.704;9.474;2023-06-04T13:12:31;3.20;;;2.88;;
11996;SDS011;6058;48.704;9.474;2023-06-04T13:14:58;2.72;;;2.50;;
11996;SDS011;6058;48.704;9.474;2023-06-04T13:17:27;2.38;;;2.15;;
11996;SDS011;6058;48.704;9.474;2023-06-04T13:19:56;3.42;;;2.70;;
11996;SDS011;6058;48.704;9.474;2023-06-04T13:22:23;5.93;;;2.40;;
11996;SDS011;6058;48.704;9.474;2023-06-04T13:24:50;3.80;;;2.67;;
11996;SDS011;6058;48.704;9.474;2023-06-04T13:27:17;2.90;;;2.50;;
11996;SDS011;6058;48.704;9.474;2023-06-04T13:29:44;2.97;;;2.63;;
11996;SDS011;6058;48.704;9.474;2023-06-04T13:32:11;2.67;;;2.45;;
11996;SDS011;6058;48.704;9.474;2023-06-04T13:34:38;3.85;;;2.80;;
11996;SDS011;6058;48.704;9.474;2023-06-04T13:37:07;4.20;;;2.90;;
11996;SDS011;6058;48.704;9.474;2023-06-04T13:39:35;3.70;;;2.63;;
11996;SDS011;6058;48.704;9.474;2023-06-04T13:42:03;4.57;;;2.83;;
11996;SDS011;6058;48.704;9.474;2023-06-04T13:44:30;4.55;;;2.72;;
11996;SDS011;6058;48.704;9.474;2023-06-04T13:46:58;2.50;;;2.28;;
11996;SDS011;6058;48.704;9.474;2023-06-04T13:49:26;2.58;;;2.35;;
11996;SDS011;6058;48.704;9.474;2023-06-04T13:51:53;2.63;;;2.38;;
11996;SDS011;6058;48.704;9.474;2023-06-04T13:54:21;2.78;;;2.40;;
11996;SDS011;6058;48.704;9.474;2023-06-04T13:56:49;3.90;;;2.40;;
11996;SDS011;6058;48.704;9.474;2023-06-04T13:59:16;4.90;;;2.30;;
11996;SDS011;6058;48.704;9.474;2023-06-04T14:01:43;5.05;;;2.80;;
11996;SDS011;6058;48.704;9.474;2023-06-04T14:04:10;3.17;;;2.60;;
11996;SDS011;6058;48.704;9.474;2023-06-04T14:06:37;2.50;;;2.30;;
11996;SDS011;6058;48.704;9.474;2023-06-04T14:09:04;2.88;;;2.42;;
11996;SDS011;6058;48.704;9.474;2023-06-04T14:11:33;3.28;;;2.53;;
11996;SDS011;6058;48.704;9.474;2023-06-04T14:14:00;4.65;;;2.60;;
11996;SDS011;6058;48.704;9.474;2023-06-04T14:16:27;2.88;;;2.58;;
11996;SDS011;6058;48.704;9.474;2023-06-04T14:18:54;2.47;;;2.28;;
11996;SDS011;6058;48.704;9.474;2023-06-04T14:21:21;4.10;;;2.72;;
11996;SDS011;6058;48.704;9.474;2023-06-04T14:23:49;3.45;;;2.45;;
11996;SDS011;6058;48.704;9.474;2023-06-04T14:26:17;2.58;;;2.38;;
11996;SDS011;6058;48.704;9.474;2023-06-04T14:28:45;2.60;;;2.40;;
11996;SDS011;6058;48.704;9.474;2023-06-04T14:31:12;2.88;;;2.53;;
11996;SDS011;6058;48.704;9.474;2023-06-04T14:33:39;3.55;;;2.70;;
11996;SDS011;6058;48.704;9.474;2023-06-04T14:36:07;2.80;;;2.60;;
11996;SDS011;6058;48.704;9.474;2023-06-04T14:38:34;4.45;;;2.60;;
11996;SDS011;6058;48.704;9.474;2023-06-04T14:41:02;5.97;;;2.40;;
11996;SDS011;6058;48.704;9.474;2023-06-04T14:43:31;2.88;;;2.45;;
11996;SDS011;6058;48.704;9.474;2023-06-04T14:46:00;3.08;;;2.03;;
11996;SDS011;6058;48.704;9.474;2023-06-04T14:48:27;3.13;;;2.60;;
11996;SDS011;6058;48.704;9.474;2023-06-04T14:50:54;5.28;;;2.83;;
11996;SDS011;6058;48.704;9.474;2023-06-04T14:53:22;2.30;;;2.10;;
11996;SDS011;6058;48.704;9.474;2023-06-04T14:58:27;4.25;;;2.67;;
11996;SDS011;6058;48.704;9.474;2023-06-04T15:00:54;3.80;;;2.30;;
11996;SDS011;6058;48.704;9.474;2023-06-04T15:03:24;3.10;;;2.67;;
11996;SDS011;6058;48.704;9.474;2023-06-04T15:05:51;3.30;;;3.00;;
11996;SDS011;6058;48.704;9.474;2023-06-04T15:08:19;2.80;;;2.60;;
11996;SDS011;6058;48.704;9.474;2023-06-04T15:10:46;2.83;;;2.53;;